createdAt,value
2023-05-11T00:00:16.501Z,13.24
2023-05-11T00:02:44.352Z,13.21
2023-05-11T00:05:10.984Z,13.27
2023-05-11T00:07:37.372Z,13.25
2023-05-11T00:10:03.995Z,13.26
2023-05-11T00:12:30.546Z,13.25
2023-05-11T00:14:57.086Z,13.24
2023-05-11T00:17:23.613Z,13.25
2023-05-11T00:19:50.230Z,13.22
2023-05-11T00:22:16.789Z,13.21
2023-05-11T00:24:43.447Z,13.24
2023-05-11T00:27:10.038Z,13.24
2023-05-11T00:29:36.628Z,13.20
2023-05-11T00:32:03.533Z,13.16
2023-05-11T00:34:30.070Z,13.07
2023-05-11T00:36:56.817Z,13.13
2023-05-11T00:39:23.372Z,13.10
2023-05-11T00:41:50.678Z,13.15
2023-05-11T00:44:17.439Z,13.12
2023-05-11T00:46:44.302Z,13.10
2023-05-11T00:49:12.391Z,13.10
2023-05-11T00:51:39.409Z,13.11
2023-05-11T00:54:09.506Z,13.06
2023-05-11T00:56:37.422Z,13.02
2023-05-11T00:59:04.163Z,13.04
2023-05-11T01:01:30.990Z,13.04
2023-05-11T01:03:57.865Z,13.04
2023-05-11T01:06:42.553Z,13.06
2023-05-11T01:09:18.892Z,13.07
2023-05-11T01:11:51.588Z,13.13
2023-05-11T01:14:34.949Z,13.11
2023-05-11T01:17:10.609Z,13.16
2023-05-11T01:19:57.410Z,13.13
2023-05-11T01:22:48.792Z,13.07
2023-05-11T01:25:48.869Z,13.02
2023-05-11T01:28:46.264Z,13.02
2023-05-11T01:31:15.408Z,13.00
2023-05-11T01:33:54.113Z,12.98
2023-05-11T01:36:23.483Z,12.98
2023-05-11T01:38:51.888Z,12.95
2023-05-11T01:41:21.934Z,12.96
2023-05-11T01:43:54.784Z,12.94
2023-05-11T01:46:27.458Z,13.01
2023-05-11T01:48:57.835Z,13.00
2023-05-11T01:51:32.826Z,12.93
2023-05-11T01:54:00.500Z,12.92
2023-05-11T01:56:28.241Z,12.89
2023-05-11T01:58:57.078Z,12.92
2023-05-11T02:01:24.996Z,12.89
2023-05-11T02:03:53.653Z,12.90
2023-05-11T02:06:24.273Z,12.87
2023-05-11T02:08:51.025Z,12.82
2023-05-11T02:11:20.491Z,12.84
2023-05-11T02:13:49.435Z,12.85
2023-05-11T02:16:18.701Z,12.81
2023-05-11T02:18:46.310Z,12.85
2023-05-11T02:21:15.935Z,12.80
2023-05-11T02:23:44.224Z,12.81
2023-05-11T02:26:13.289Z,12.80
2023-05-11T02:28:40.127Z,12.79
2023-05-11T02:31:12.143Z,12.78
2023-05-11T02:33:44.743Z,12.73
2023-05-11T02:36:16.176Z,12.79
2023-05-11T02:38:46.077Z,12.79
2023-05-11T02:41:17.505Z,12.79
2023-05-11T02:43:49.968Z,12.75
2023-05-11T02:46:20.759Z,12.85
2023-05-11T02:48:52.157Z,12.73
2023-05-11T02:51:24.358Z,12.76
2023-05-11T02:53:54.867Z,12.74
2023-05-11T02:56:23.629Z,12.69
2023-05-11T02:58:50.359Z,12.65
2023-05-11T03:01:17.765Z,12.66
2023-05-11T03:03:45.990Z,12.59
2023-05-11T03:06:13.013Z,12.63
2023-05-11T03:08:41.995Z,12.65
2023-05-11T03:11:09.395Z,12.65
2023-05-11T03:13:36.148Z,12.59
2023-05-11T03:16:04.185Z,12.59
2023-05-11T03:18:31.185Z,12.51
2023-05-11T03:21:00.594Z,12.44
2023-05-11T03:23:28.153Z,12.38
2023-05-11T03:25:55.117Z,12.39
2023-05-11T03:28:24.218Z,12.35
2023-05-11T03:30:53.231Z,12.40
2023-05-11T03:33:21.199Z,12.39
2023-05-11T03:35:51.066Z,12.42
2023-05-11T03:38:22.424Z,12.45
2023-05-11T03:40:51.407Z,12.45
2023-05-11T03:43:19.206Z,12.40
2023-05-11T03:45:48.051Z,12.37
2023-05-11T03:48:16.436Z,12.37
2023-05-11T03:50:44.685Z,12.35
2023-05-11T03:53:12.354Z,12.34
2023-05-11T03:55:39.096Z,12.34
2023-05-11T03:58:08.377Z,12.33
2023-05-11T04:00:39.865Z,12.32
2023-05-11T04:03:07.342Z,12.32
2023-05-11T04:05:33.949Z,12.31
2023-05-11T04:08:00.831Z,12.32
2023-05-11T04:10:27.493Z,12.30
2023-05-11T04:12:56.695Z,12.31
2023-05-11T04:15:23.504Z,12.30
2023-05-11T04:17:50.328Z,12.32
2023-05-11T04:20:17.099Z,12.32
2023-05-11T04:22:43.812Z,12.34
2023-05-11T04:25:10.412Z,12.35
2023-05-11T04:27:38.815Z,12.35
2023-05-11T04:30:06.269Z,12.34
2023-05-11T04:32:33.098Z,12.34
2023-05-11T04:34:59.709Z,12.36
2023-05-11T04:37:26.262Z,12.37
2023-05-11T04:39:52.837Z,12.38
2023-05-11T04:42:19.381Z,12.38
2023-05-11T04:44:45.924Z,12.38
2023-05-11T04:47:12.484Z,12.38
2023-05-11T04:49:39.555Z,12.37
2023-05-11T04:52:06.389Z,12.39
2023-05-11T04:54:33.165Z,12.41
2023-05-11T04:56:59.702Z,12.44
2023-05-11T04:59:26.528Z,12.42
2023-05-11T05:01:53.083Z,12.44
2023-05-11T05:04:19.641Z,12.46
2023-05-11T05:06:46.163Z,12.45
2023-05-11T05:09:12.670Z,12.48
2023-05-11T05:11:39.525Z,12.48
2023-05-11T05:14:06.044Z,12.50
2023-05-11T05:16:32.873Z,12.51
2023-05-11T05:18:59.432Z,12.51
2023-05-11T05:21:26.055Z,12.55
2023-05-11T05:23:52.618Z,12.66
2023-05-11T05:26:19.128Z,12.65
2023-05-11T05:28:45.747Z,12.68
2023-05-11T05:31:12.380Z,12.70
2023-05-11T05:33:39.097Z,12.67
2023-05-11T05:36:05.839Z,12.72
2023-05-11T05:38:32.615Z,12.77
2023-05-11T05:40:59.555Z,12.82
2023-05-11T05:43:26.187Z,12.77
2023-05-11T05:45:52.706Z,12.80
2023-05-11T05:48:19.419Z,12.89
2023-05-11T05:50:46.956Z,12.92
2023-05-11T05:53:13.725Z,12.94
2023-05-11T05:55:40.479Z,13.00
2023-05-11T05:58:08.124Z,13.08
2023-05-11T06:00:35.343Z,13.27
2023-05-11T06:03:02.054Z,13.32
2023-05-11T06:05:28.624Z,13.39
2023-05-11T06:08:09.262Z,13.42
2023-05-11T06:10:37.243Z,13.45
2023-05-11T06:13:03.753Z,13.41
2023-05-11T06:15:30.301Z,13.38
2023-05-11T06:17:57.054Z,13.38
2023-05-11T06:20:24.529Z,13.34
2023-05-11T06:22:51.048Z,13.37
2023-05-11T06:25:17.601Z,13.32
2023-05-11T06:27:44.237Z,13.33
2023-05-11T06:30:11.366Z,13.32
2023-05-11T06:32:38.089Z,13.32
2023-05-11T06:35:05.637Z,13.31
2023-05-11T06:37:32.264Z,13.25
2023-05-11T06:39:59.227Z,13.26
2023-05-11T06:42:26.097Z,13.22
2023-05-11T06:44:52.799Z,13.27
2023-05-11T06:47:19.401Z,13.28
2023-05-11T06:49:46.006Z,13.30
2023-05-11T06:52:12.569Z,13.31
2023-05-11T06:54:39.266Z,13.37
2023-05-11T06:57:06.055Z,13.40
2023-05-11T06:59:32.667Z,13.41
2023-05-11T07:01:59.452Z,13.40
2023-05-11T07:04:26.261Z,13.52
2023-05-11T07:06:53.237Z,13.73
2023-05-11T07:09:19.762Z,13.76
2023-05-11T07:11:46.292Z,13.83
2023-05-11T07:14:13.066Z,13.93
2023-05-11T07:16:39.625Z,14.04
2023-05-11T07:19:08.458Z,14.17
2023-05-11T07:21:36.015Z,14.18
2023-05-11T07:24:03.262Z,14.21
2023-05-11T07:26:30.549Z,14.31
2023-05-11T07:28:57.309Z,14.32
2023-05-11T07:31:23.890Z,14.37
2023-05-11T07:33:50.472Z,14.34
2023-05-11T07:36:17.137Z,14.43
2023-05-11T07:38:44.625Z,14.48
2023-05-11T07:41:12.601Z,14.55
2023-05-11T07:43:39.893Z,14.61
2023-05-11T07:46:06.512Z,14.63
2023-05-11T07:48:33.229Z,14.70
2023-05-11T07:51:00.446Z,14.68
2023-05-11T07:53:27.511Z,14.67
2023-05-11T07:55:54.062Z,14.55
2023-05-11T07:58:20.548Z,14.49
2023-05-11T08:00:47.045Z,14.42
2023-05-11T08:03:14.904Z,14.33
2023-05-11T08:05:41.622Z,14.36
2023-05-11T08:08:08.256Z,14.34
2023-05-11T08:10:36.496Z,14.33
2023-05-11T08:13:03.002Z,14.32
2023-05-11T08:15:30.313Z,14.33
2023-05-11T08:17:57.107Z,14.30
2023-05-11T08:20:23.961Z,14.31
2023-05-11T08:22:50.920Z,14.29
2023-05-11T08:25:18.014Z,14.31
2023-05-11T08:27:44.927Z,14.33
2023-05-11T08:30:12.303Z,14.36
2023-05-11T08:32:54.523Z,14.34
2023-05-11T08:35:25.516Z,14.40
2023-05-11T08:37:52.260Z,14.41
2023-05-11T08:40:20.301Z,14.46
2023-05-11T08:42:49.155Z,14.48
2023-05-11T08:45:17.991Z,14.54
2023-05-11T08:47:45.653Z,14.58
2023-05-11T08:50:12.645Z,14.64
2023-05-11T08:52:40.939Z,14.61
2023-05-11T08:55:11.137Z,14.54
2023-05-11T08:57:38.800Z,14.51
2023-05-11T09:00:05.834Z,14.37
2023-05-11T09:02:33.517Z,14.24
2023-05-11T09:05:01.989Z,14.12
2023-05-11T09:07:29.922Z,14.10
2023-05-11T09:09:56.805Z,14.08
2023-05-11T09:12:26.299Z,13.96
2023-05-11T09:14:52.900Z,13.86
2023-05-11T09:17:19.463Z,13.88
2023-05-11T09:20:05.924Z,13.95
2023-05-11T09:22:36.218Z,13.98
2023-05-11T09:25:04.079Z,13.99
2023-05-11T09:27:31.254Z,13.98
2023-05-11T09:30:10.737Z,13.99
2023-05-11T09:32:56.698Z,13.91
2023-05-11T09:35:29.331Z,13.84
2023-05-11T09:38:02.874Z,13.82
2023-05-11T09:40:34.204Z,13.76
2023-05-11T09:43:01.879Z,13.74
2023-05-11T09:45:43.020Z,13.74
2023-05-11T09:48:21.860Z,13.66
2023-05-11T09:50:50.176Z,13.70
2023-05-11T09:53:17.790Z,13.74
2023-05-11T09:55:52.282Z,13.68
2023-05-11T09:58:18.761Z,13.69
2023-05-11T10:00:51.924Z,13.66
2023-05-11T10:03:19.080Z,13.70
2023-05-11T10:06:02.066Z,13.73
2023-05-11T10:08:34.584Z,13.83
2023-05-11T10:11:02.590Z,13.86
2023-05-11T10:13:30.743Z,13.89
2023-05-11T10:15:59.389Z,13.89
2023-05-11T10:18:26.818Z,13.93
2023-05-11T10:20:53.801Z,14.02
2023-05-11T10:23:20.990Z,14.03
2023-05-11T10:25:48.067Z,14.05
2023-05-11T10:28:15.298Z,14.05
2023-05-11T10:30:42.538Z,14.08
2023-05-11T10:33:10.617Z,14.06
2023-05-11T10:35:38.097Z,14.10
2023-05-11T10:38:04.666Z,14.12
2023-05-11T10:40:38.535Z,14.09
2023-05-11T10:43:24.853Z,14.13
2023-05-11T10:46:08.893Z,14.11
2023-05-11T10:49:02.946Z,14.07
2023-05-11T10:51:53.509Z,14.01
2023-05-11T10:54:46.480Z,14.12
2023-05-11T10:57:41.994Z,14.01
2023-05-11T11:00:58.138Z,14.10
2023-05-11T11:03:25.326Z,14.11
2023-05-11T11:05:52.136Z,14.16
2023-05-11T11:08:18.900Z,14.17
2023-05-11T11:10:49.429Z,14.17
2023-05-11T11:13:17.455Z,14.14
2023-05-11T11:15:54.046Z,14.21
2023-05-11T11:18:33.554Z,14.29
2023-05-11T11:21:01.115Z,14.31
2023-05-11T11:23:39.868Z,14.28
2023-05-11T11:26:07.852Z,14.27
2023-05-11T11:29:05.366Z,14.28
2023-05-11T11:31:34.271Z,14.31
2023-05-11T11:34:28.849Z,14.32
2023-05-11T11:36:55.581Z,14.37
2023-05-11T11:39:22.743Z,14.40
2023-05-11T11:42:02.985Z,14.44
2023-05-11T11:44:29.603Z,14.52
2023-05-11T11:47:11.615Z,14.68
2023-05-11T11:49:40.687Z,14.71
2023-05-11T11:52:12.983Z,14.92
2023-05-11T11:54:45.385Z,14.92
2023-05-11T11:57:30.325Z,15.04
2023-05-11T11:59:57.160Z,15.05
2023-05-11T12:02:24.542Z,15.21
2023-05-11T12:05:13.220Z,15.23
2023-05-11T12:07:45.036Z,15.35
2023-05-11T12:10:14.245Z,15.47
2023-05-11T12:12:45.576Z,15.82
2023-05-11T12:15:26.358Z,15.78
2023-05-11T12:17:53.050Z,15.75
2023-05-11T12:20:20.825Z,15.83
2023-05-11T12:22:49.215Z,15.93
2023-05-11T12:25:18.234Z,15.87
2023-05-11T12:27:59.346Z,15.72
2023-05-11T12:30:33.029Z,15.64
2023-05-11T12:33:01.213Z,15.67
2023-05-11T12:35:32.867Z,15.70
2023-05-11T12:38:02.431Z,15.64
2023-05-11T12:40:29.025Z,15.68
2023-05-11T12:42:57.839Z,15.72
2023-05-11T12:45:25.570Z,15.78
2023-05-11T12:47:53.835Z,15.79
2023-05-11T12:50:21.451Z,15.81
2023-05-11T12:52:50.198Z,15.82
2023-05-11T12:55:37.201Z,15.68
2023-05-11T12:58:08.667Z,15.70
2023-05-11T13:00:35.609Z,15.65
2023-05-11T13:03:03.185Z,15.73
2023-05-11T13:05:30.588Z,15.77
2023-05-11T13:08:04.793Z,15.79
2023-05-11T13:10:32.138Z,15.84
2023-05-11T13:12:59.210Z,15.90
2023-05-11T13:15:25.996Z,15.90
2023-05-11T13:17:58.537Z,15.83
2023-05-11T13:20:27.752Z,15.85
2023-05-11T13:23:10.445Z,15.90
2023-05-11T13:25:45.836Z,15.92
2023-05-11T13:28:15.415Z,15.90
2023-05-11T13:30:42.600Z,16.01
2023-05-11T13:33:09.648Z,16.01
2023-05-11T13:35:40.391Z,15.96
2023-05-11T13:38:07.626Z,15.96
2023-05-11T13:40:35.064Z,16.01
2023-05-11T13:43:02.145Z,16.01
2023-05-11T13:45:28.709Z,15.90
2023-05-11T13:47:55.542Z,15.94
2023-05-11T13:50:23.615Z,15.93
2023-05-11T13:52:53.730Z,15.96
2023-05-11T13:55:21.117Z,15.83
2023-05-11T13:57:48.244Z,15.80
2023-05-11T14:00:15.393Z,15.75
2023-05-11T14:02:43.596Z,15.74
2023-05-11T14:05:12.235Z,15.76
2023-05-11T14:07:47.719Z,15.76
2023-05-11T14:10:15.401Z,15.75
2023-05-11T14:12:42.256Z,15.76
2023-05-11T14:15:09.608Z,15.77
2023-05-11T14:17:36.516Z,15.73
2023-05-11T14:20:04.233Z,15.75
2023-05-11T14:22:30.820Z,15.76
2023-05-11T14:24:57.380Z,15.80
2023-05-11T14:27:25.216Z,15.84
2023-05-11T14:29:52.256Z,15.76
2023-05-11T14:32:19.510Z,15.82
2023-05-11T14:34:47.458Z,15.79
2023-05-11T14:37:14.141Z,15.84
2023-05-11T14:39:41.946Z,15.82
2023-05-11T14:42:10.043Z,15.82
2023-05-11T14:44:36.536Z,15.94
2023-05-11T14:47:03.259Z,15.97
2023-05-11T14:49:29.863Z,15.92
2023-05-11T14:51:57.981Z,16.06
2023-05-11T14:54:24.516Z,16.01
2023-05-11T14:56:56.296Z,16.10
2023-05-11T14:59:27.119Z,16.07
2023-05-11T15:01:53.818Z,16.08
2023-05-11T15:04:20.830Z,16.11
2023-05-11T15:06:47.882Z,16.08
2023-05-11T15:09:14.551Z,16.02
2023-05-11T15:11:41.412Z,16.08
2023-05-11T15:14:07.994Z,16.15
2023-05-11T15:16:34.602Z,16.05
2023-05-11T15:19:01.299Z,16.04
2023-05-11T15:21:28.455Z,16.09
2023-05-11T15:23:54.938Z,16.11
2023-05-11T15:26:22.479Z,16.16
2023-05-11T15:28:49.281Z,16.13
2023-05-11T15:31:15.951Z,16.10
2023-05-11T15:33:43.253Z,16.07
2023-05-11T15:36:14.659Z,16.09
2023-05-11T15:38:43.326Z,16.11
2023-05-11T15:41:11.349Z,16.07
2023-05-11T15:43:37.764Z,16.06
2023-05-11T15:46:04.988Z,16.09
2023-05-11T15:48:31.635Z,16.07
2023-05-11T15:51:01.509Z,16.05
2023-05-11T15:53:28.832Z,16.03
2023-05-11T15:55:55.902Z,16.07
2023-05-11T15:58:23.104Z,16.09
2023-05-11T16:00:50.044Z,16.06
2023-05-11T16:03:17.560Z,16.06
2023-05-11T16:05:45.046Z,16.04
2023-05-11T16:08:13.059Z,15.97
2023-05-11T16:10:40.837Z,15.99
2023-05-11T16:13:07.937Z,16.01
2023-05-11T16:15:34.435Z,15.99
2023-05-11T16:18:03.921Z,15.96
2023-05-11T16:20:31.392Z,16.00
2023-05-11T16:22:57.957Z,16.09
2023-05-11T16:25:24.700Z,16.06
2023-05-11T16:27:51.236Z,16.12
2023-05-11T16:30:24.814Z,16.10
2023-05-11T16:32:52.890Z,16.07
2023-05-11T16:35:20.032Z,16.06
2023-05-11T16:37:47.762Z,16.01
2023-05-11T16:40:14.481Z,16.04
2023-05-11T16:42:41.378Z,16.07
2023-05-11T16:45:08.595Z,16.05
2023-05-11T16:47:35.814Z,16.07
2023-05-11T16:50:02.618Z,15.98
2023-05-11T16:52:29.196Z,16.08
2023-05-11T16:54:58.963Z,16.08
2023-05-11T16:57:25.962Z,16.05
2023-05-11T16:59:52.694Z,15.94
2023-05-11T17:02:19.960Z,15.90
2023-05-11T17:04:46.679Z,15.85
2023-05-11T17:07:14.919Z,15.84
2023-05-11T17:09:42.199Z,15.82
2023-05-11T17:12:10.512Z,15.85
2023-05-11T17:14:37.123Z,15.88
2023-05-11T17:17:08.255Z,15.88
2023-05-11T17:19:36.657Z,15.83
2023-05-11T17:22:03.749Z,15.82
2023-05-11T17:24:31.201Z,15.79
2023-05-11T17:26:57.772Z,15.68
2023-05-11T17:29:24.577Z,15.64
2023-05-11T17:31:51.857Z,15.51
2023-05-11T17:34:19.328Z,15.47
2023-05-11T17:36:46.240Z,15.42
2023-05-11T17:39:12.863Z,15.33
2023-05-11T17:41:39.517Z,15.27
2023-05-11T17:44:06.382Z,15.22
2023-05-11T17:46:32.934Z,15.14
2023-05-11T17:48:59.601Z,15.06
2023-05-11T17:51:26.135Z,15.10
2023-05-11T17:53:52.808Z,15.02
2023-05-11T17:56:19.670Z,15.00
2023-05-11T17:58:46.281Z,14.95
2023-05-11T18:01:16.754Z,14.90
2023-05-11T18:03:45.510Z,14.86
2023-05-11T18:06:12.236Z,14.82
2023-05-11T18:08:38.798Z,14.83
2023-05-11T18:11:05.738Z,14.85
2023-05-11T18:13:32.505Z,14.80
2023-05-11T18:15:59.878Z,14.79
2023-05-11T18:18:26.658Z,14.72
2023-05-11T18:20:55.239Z,14.75
2023-05-11T18:23:21.971Z,14.68
2023-05-11T18:25:48.792Z,14.64
2023-05-11T18:28:15.370Z,14.63
2023-05-11T18:30:41.824Z,14.56
2023-05-11T18:33:08.465Z,14.57
2023-05-11T18:35:35.139Z,14.54
2023-05-11T18:38:04.596Z,14.47
2023-05-11T18:40:31.372Z,14.40
2023-05-11T18:42:58.112Z,14.31
2023-05-11T18:45:25.387Z,14.29
2023-05-11T18:47:52.061Z,14.28
2023-05-11T18:50:18.889Z,14.30
2023-05-11T18:52:45.445Z,14.22
2023-05-11T18:55:12.122Z,14.23
2023-05-11T18:57:40.011Z,14.08
2023-05-11T19:00:07.540Z,14.02
2023-05-11T19:02:34.240Z,13.98
2023-05-11T19:05:01.236Z,13.98
2023-05-11T19:07:28.536Z,13.98
2023-05-11T19:09:55.332Z,13.94
2023-05-11T19:12:22.279Z,13.94
2023-05-11T19:14:48.829Z,13.98
2023-05-11T19:17:15.652Z,13.90
2023-05-11T19:19:42.215Z,13.86
2023-05-11T19:22:09.299Z,13.88
2023-05-11T19:24:36.053Z,13.87
2023-05-11T19:27:07.787Z,13.90
2023-05-11T19:29:35.371Z,13.92
2023-05-11T19:32:02.354Z,13.89
2023-05-11T19:34:29.446Z,13.86
2023-05-11T19:36:55.986Z,13.91
2023-05-11T19:39:22.763Z,13.89
2023-05-11T19:41:49.201Z,13.95
2023-05-11T19:44:19.056Z,13.92
2023-05-11T19:46:47.088Z,13.86
2023-05-11T19:49:15.008Z,13.80
2023-05-11T19:51:42.069Z,13.85
2023-05-11T19:54:09.031Z,13.88
2023-05-11T19:56:35.558Z,13.90
2023-05-11T19:59:05.046Z,13.87
2023-05-11T20:01:31.907Z,13.84
2023-05-11T20:03:59.329Z,13.79
2023-05-11T20:06:26.957Z,13.71
2023-05-11T20:08:54.215Z,13.69
2023-05-11T20:11:22.086Z,13.71
2023-05-11T20:13:48.745Z,13.57
2023-05-11T20:16:16.376Z,13.60
2023-05-11T20:18:43.122Z,13.56
2023-05-11T20:21:09.848Z,13.54
2023-05-11T20:23:37.626Z,13.54
2023-05-11T20:26:04.828Z,13.52
2023-05-11T20:28:32.013Z,13.43
2023-05-11T20:30:58.501Z,13.39
2023-05-11T20:35:54.775Z,13.36
2023-05-11T20:38:21.834Z,13.38
2023-05-11T20:40:48.289Z,13.35
2023-05-11T20:43:15.166Z,13.28
2023-05-11T20:45:42.347Z,13.31
2023-05-11T20:48:11.296Z,13.30
2023-05-11T20:50:39.383Z,13.27
2023-05-11T20:53:06.172Z,13.27
2023-05-11T20:55:32.874Z,13.27
2023-05-11T20:57:59.447Z,13.22
2023-05-11T21:00:26.153Z,13.23
2023-05-11T21:02:52.791Z,13.17
2023-05-11T21:05:19.706Z,13.11
2023-05-11T21:07:46.333Z,13.08
2023-05-11T21:10:14.080Z,13.06
2023-05-11T21:12:40.823Z,13.03
2023-05-11T21:15:07.804Z,13.01
2023-05-11T21:17:34.854Z,12.97
2023-05-11T21:20:05.424Z,12.94
2023-05-11T21:22:33.517Z,12.92
2023-05-11T21:25:03.960Z,12.93
2023-05-11T21:27:31.203Z,12.89
2023-05-11T21:29:57.770Z,12.87
2023-05-11T21:32:24.388Z,12.89
2023-05-11T21:34:51.178Z,12.84
2023-05-11T21:37:20.258Z,12.79
2023-05-11T21:39:50.694Z,12.78
2023-05-11T21:42:17.568Z,12.69
2023-05-11T21:44:46.069Z,12.66
2023-05-11T21:47:12.552Z,12.65
2023-05-11T21:49:39.132Z,12.68
2023-05-11T21:52:05.996Z,12.70
2023-05-11T21:54:32.649Z,12.66
2023-05-11T21:56:59.255Z,12.67
2023-05-11T21:59:27.578Z,12.65
2023-05-11T22:01:56.649Z,12.64
2023-05-11T22:04:23.915Z,12.59
2023-05-11T22:06:50.514Z,12.55
2023-05-11T22:09:17.034Z,12.57
2023-05-11T22:11:43.524Z,12.55
2023-05-11T22:14:10.011Z,12.53
2023-05-11T22:16:36.809Z,12.51
2023-05-11T22:19:04.086Z,12.58
2023-05-11T22:21:30.706Z,12.56
2023-05-11T22:23:57.196Z,12.57
2023-05-11T22:26:23.829Z,12.54
2023-05-11T22:28:50.376Z,12.48
2023-05-11T22:31:17.073Z,12.47
2023-05-11T22:33:43.577Z,12.49
2023-05-11T22:36:11.847Z,12.52
2023-05-11T22:38:38.298Z,12.51
2023-05-11T22:41:05.224Z,12.47
2023-05-11T22:43:31.908Z,12.48
2023-05-11T22:45:58.421Z,12.43
2023-05-11T22:48:25.406Z,12.38
2023-05-11T22:50:51.873Z,12.37
2023-05-11T22:53:20.000Z,12.36
2023-05-11T22:55:47.672Z,12.37
2023-05-11T22:58:14.157Z,12.38
2023-05-11T23:00:40.641Z,12.37
2023-05-11T23:03:08.195Z,12.35
2023-05-11T23:05:34.993Z,12.31
2023-05-11T23:08:01.580Z,12.28
2023-05-11T23:10:28.815Z,12.28
2023-05-11T23:12:56.179Z,12.36
2023-05-11T23:15:22.712Z,12.40
2023-05-11T23:17:49.300Z,12.34
2023-05-11T23:20:17.145Z,12.34
2023-05-11T23:22:43.715Z,12.37
2023-05-11T23:25:10.528Z,12.37
2023-05-11T23:27:37.370Z,12.35
2023-05-11T23:30:04.417Z,12.30
2023-05-11T23:32:32.308Z,12.31
2023-05-11T23:34:59.444Z,12.27
2023-05-11T23:37:27.335Z,12.21
2023-05-11T23:39:53.963Z,12.19
2023-05-11T23:42:20.582Z,12.17
2023-05-11T23:44:47.607Z,12.18
2023-05-11T23:47:14.161Z,12.22
2023-05-11T23:49:41.060Z,12.20
2023-05-11T23:52:07.558Z,12.19
2023-05-11T23:54:35.021Z,12.14
2023-05-11T23:57:02.093Z,12.14
2023-05-11T23:59:28.530Z,12.13
